WEATHER/FLIGHT PLANNING

Hattiesburg Radar

 

 

 

 

Weather Links

Flight Planning Links

 

METAR

2018/07/23 10:53 KHBG 231053Z AUTO 00000KT 10SM FEW110 24/21 A2984 RMK AO2 SLP102 T02390211 TSNO

TAF

2018/07/23 06:22 TAF KHBG 230520Z 2306/2406 32007KT P6SM FEW250